createdAt,value
2019-03-12T00:02:11.521Z,97613.61
2019-03-12T00:04:41.489Z,97634.31
2019-03-12T00:07:11.287Z,97636.89
2019-03-12T00:09:41.113Z,97638.58
2019-03-12T00:12:11.047Z,97636.95
2019-03-12T00:14:43.776Z,97646.81
2019-03-12T00:17:13.717Z,97643.41
2019-03-12T00:19:43.522Z,97644.94
2019-03-12T00:22:14.564Z,97646.76
2019-03-12T00:24:44.839Z,97646.76
2019-03-12T00:27:16.562Z,97651.24
2019-03-12T00:29:48.586Z,97667.97
2019-03-12T00:32:20.638Z,97652.77
2019-03-12T00:34:54.967Z,97666.94
2019-03-12T00:37:25.877Z,97668.20
2019-03-12T00:39:57.946Z,97659.88
2019-03-12T00:42:27.743Z,97658.26
2019-03-12T00:45:00.082Z,97653.13
2019-03-12T00:47:30.726Z,97652.83
2019-03-12T00:50:11.250Z,97667.75
2019-03-12T00:52:58.885Z,97669.80
2019-03-12T00:55:30.772Z,97671.17
2019-03-12T00:58:01.839Z,97677.81
2019-03-12T01:00:37.349Z,97678.95
2019-03-12T01:03:13.643Z,97689.14
2019-03-12T01:05:45.716Z,97694.65
2019-03-12T01:08:16.170Z,97710.78
2019-03-12T01:10:46.397Z,97708.92
2019-03-12T01:13:18.325Z,97714.50
2019-03-12T01:15:48.233Z,97711.12
2019-03-12T01:18:18.869Z,97720.95
2019-03-12T01:20:50.926Z,97728.92
2019-03-12T01:23:23.220Z,97724.30
2019-03-12T01:26:00.076Z,97730.34
2019-03-12T01:28:31.555Z,97736.02
2019-03-12T01:31:01.551Z,97733.21
2019-03-12T01:33:31.325Z,97744.59
2019-03-12T01:36:01.484Z,97750.03
2019-03-12T01:38:31.287Z,97750.22
2019-03-12T01:41:01.234Z,97753.25
2019-03-12T01:43:35.030Z,97750.78
2019-03-12T01:46:05.497Z,97750.41
2019-03-12T01:48:35.373Z,97762.59
2019-03-12T01:51:06.091Z,97760.12
2019-03-12T01:53:35.931Z,97757.31
2019-03-12T01:56:06.297Z,97757.92
2019-03-12T01:58:36.055Z,97760.69
2019-03-12T02:01:05.863Z,97769.19
2019-03-12T02:03:38.971Z,97759.20
2019-03-12T02:06:09.300Z,97757.16
2019-03-12T02:08:40.731Z,97757.61
2019-03-12T02:11:12.031Z,97752.56
2019-03-12T02:13:42.010Z,97759.66
2019-03-12T02:16:15.706Z,97766.75
2019-03-12T02:18:49.866Z,97764.93
2019-03-12T02:21:20.859Z,97766.91
2019-03-12T02:23:52.410Z,97777.54
2019-03-12T02:26:26.001Z,97786.08
2019-03-12T02:28:57.394Z,97799.20
2019-03-12T02:31:34.572Z,97798.41
2019-03-12T02:34:04.358Z,97800.88
2019-03-12T02:36:37.490Z,97794.80
2019-03-12T02:39:08.768Z,97810.66
2019-03-12T02:41:45.007Z,97800.45
2019-03-12T02:44:18.197Z,97802.80
2019-03-12T02:46:48.104Z,97806.58
2019-03-12T02:49:18.254Z,97818.50
2019-03-12T02:51:48.080Z,97821.03
2019-03-12T02:54:18.638Z,97830.45
2019-03-12T02:56:48.487Z,97830.14
2019-03-12T02:59:20.221Z,97837.18
2019-03-12T03:01:50.034Z,97841.50
2019-03-12T03:04:21.089Z,97842.95
2019-03-12T03:06:53.278Z,97844.95
2019-03-12T03:09:24.896Z,97847.37
2019-03-12T03:11:54.861Z,97848.84
2019-03-12T03:14:36.940Z,97855.36
2019-03-12T03:17:08.662Z,97863.88
2019-03-12T03:19:43.088Z,97861.69
2019-03-12T03:22:12.810Z,97861.50
2019-03-12T03:24:47.081Z,97869.07
2019-03-12T03:27:21.003Z,97857.49
2019-03-12T03:29:51.353Z,97860.64
2019-03-12T03:32:21.130Z,97865.67
2019-03-12T03:34:54.839Z,97873.33
2019-03-12T03:37:24.604Z,97875.37
2019-03-12T03:39:54.903Z,97859.99
2019-03-12T03:42:24.974Z,97864.27
2019-03-12T03:44:55.541Z,97867.08
2019-03-12T03:47:25.469Z,97866.37
2019-03-12T03:49:58.264Z,97868.98
2019-03-12T03:52:36.197Z,97873.74
2019-03-12T03:55:15.077Z,97877.44
2019-03-12T03:57:45.918Z,97878.87
2019-03-12T04:00:28.327Z,97884.42
2019-03-12T04:03:00.802Z,97877.80
2019-03-12T04:05:31.899Z,97884.65
2019-03-12T04:08:02.365Z,97876.80
2019-03-12T04:10:33.519Z,97876.78
2019-03-12T04:13:08.350Z,97875.09
2019-03-12T04:15:40.359Z,97879.38
2019-03-12T04:18:16.662Z,97872.31
2019-03-12T04:20:52.190Z,97875.09
2019-03-12T04:23:24.522Z,97867.63
2019-03-12T04:25:54.293Z,97877.38
2019-03-12T04:28:27.793Z,97882.94
2019-03-12T04:30:58.253Z,97886.27
2019-03-12T04:34:01.643Z,97877.16
2019-03-12T04:36:37.760Z,97880.11
2019-03-12T04:39:09.060Z,97880.89
2019-03-12T04:41:43.709Z,97884.20
2019-03-12T04:44:15.089Z,97883.81
2019-03-12T04:46:50.445Z,97884.95
2019-03-12T04:49:25.700Z,97893.93
2019-03-12T04:51:55.724Z,97881.41
2019-03-12T04:54:27.199Z,97894.42
2019-03-12T04:56:57.509Z,97901.78
2019-03-12T04:59:27.321Z,97892.67
2019-03-12T05:01:58.988Z,97900.47
2019-03-12T05:04:29.746Z,97909.45
2019-03-12T05:06:59.685Z,97904.31
2019-03-12T05:09:29.645Z,97905.64
2019-03-12T05:11:59.587Z,97911.09
2019-03-12T05:14:37.046Z,97901.78
2019-03-12T05:17:10.093Z,97910.53
2019-03-12T05:19:41.586Z,97918.90
2019-03-12T05:22:13.815Z,97920.06
2019-03-12T05:24:44.107Z,97923.20
2019-03-12T05:27:18.095Z,97923.09
2019-03-12T05:29:51.106Z,97929.70
2019-03-12T05:32:24.644Z,97929.50
2019-03-12T05:34:58.766Z,97936.80
2019-03-12T05:37:31.060Z,97939.96
2019-03-12T05:40:05.349Z,97945.63
2019-03-12T05:42:38.804Z,97949.95
2019-03-12T05:45:14.347Z,97950.65
2019-03-12T05:47:50.956Z,97952.73
2019-03-12T05:50:21.960Z,97952.80
2019-03-12T05:53:05.157Z,97958.92
2019-03-12T05:55:34.986Z,97952.67
2019-03-12T05:58:05.251Z,97961.06
2019-03-12T06:00:38.148Z,97967.26
2019-03-12T06:03:07.937Z,97960.31
2019-03-12T06:05:41.494Z,97965.33
2019-03-12T06:08:11.252Z,97965.05
2019-03-12T06:10:42.280Z,97970.30
2019-03-12T06:13:12.149Z,97970.30
2019-03-12T06:15:42.021Z,97974.34
2019-03-12T06:18:11.929Z,97978.27
2019-03-12T06:20:44.035Z,97981.99
2019-03-12T06:23:22.192Z,97987.05
2019-03-12T06:25:53.278Z,97986.77
2019-03-12T06:28:24.799Z,97984.86
2019-03-12T06:31:11.833Z,97991.78
2019-03-12T06:34:02.554Z,97991.78
2019-03-12T06:36:43.804Z,97991.15
2019-03-12T06:39:29.316Z,98010.58
2019-03-12T06:42:04.215Z,98005.26
2019-03-12T06:44:55.652Z,98008.91
2019-03-12T06:47:36.323Z,98010.72
2019-03-12T06:50:12.403Z,98008.10
2019-03-12T06:52:43.759Z,98007.88
2019-03-12T06:55:17.935Z,98011.84
2019-03-12T06:58:02.340Z,98017.13
2019-03-12T07:00:43.767Z,98023.01
2019-03-12T07:03:32.931Z,98024.95
2019-03-12T07:06:09.159Z,98026.23
2019-03-12T07:08:46.886Z,98031.70
2019-03-12T07:11:37.352Z,98034.02
2019-03-12T07:14:18.221Z,98039.50
2019-03-12T07:17:02.533Z,98043.34
2019-03-12T07:19:52.535Z,98040.42
2019-03-12T07:22:29.347Z,98036.11
2019-03-12T07:25:15.628Z,98042.64
2019-03-12T07:27:55.593Z,98045.72
2019-03-12T07:30:32.630Z,98048.45
2019-03-12T07:33:11.642Z,98048.14
2019-03-12T07:35:48.548Z,98049.66
2019-03-12T07:38:23.590Z,98058.48
2019-03-12T07:41:23.562Z,98056.86
2019-03-12T07:43:47.637Z,98048.67
2019-03-12T07:46:26.628Z,98050.28
2019-03-12T07:49:18.297Z,98048.67
2019-03-12T07:51:50.954Z,98051.48
2019-03-12T07:54:32.994Z,98054.67
2019-03-12T07:57:22.192Z,98060.60
2019-03-12T08:00:06.347Z,98057.22
2019-03-12T08:02:58.890Z,98063.89
2019-03-12T08:05:39.051Z,98063.16
2019-03-12T08:08:23.894Z,98070.03
2019-03-12T08:10:58.606Z,98064.48
2019-03-12T08:13:33.824Z,98065.05
2019-03-12T08:16:06.474Z,98061.20
2019-03-12T08:19:02.082Z,98060.77
2019-03-12T08:21:41.196Z,98056.97
2019-03-12T08:24:22.605Z,98058.33
2019-03-12T08:27:10.079Z,98060.86
2019-03-12T08:29:42.467Z,98059.20
2019-03-12T08:32:23.735Z,98061.81
2019-03-12T08:34:57.234Z,98049.98
2019-03-12T08:37:39.259Z,98047.16
2019-03-12T08:40:17.359Z,98053.00
2019-03-12T08:42:55.093Z,98050.29
2019-03-12T08:45:30.897Z,98046.87
2019-03-12T08:51:07.947Z,98048.37
2019-03-12T08:53:41.434Z,98056.64
2019-03-12T08:56:21.494Z,98066.44
2019-03-12T08:58:56.308Z,98053.38
2019-03-12T09:01:47.385Z,98056.72
2019-03-12T09:04:19.438Z,98070.47
2019-03-12T09:06:55.500Z,98064.27
2019-03-12T09:09:37.717Z,98067.19
2019-03-12T09:12:17.010Z,98069.04
2019-03-12T09:14:50.068Z,98069.56
2019-03-12T09:17:28.205Z,98062.52
2019-03-12T09:20:02.156Z,98065.86
2019-03-12T09:22:40.436Z,98071.34
2019-03-12T09:25:25.329Z,98059.84
2019-03-12T09:28:08.610Z,98059.86
2019-03-12T09:30:44.173Z,98062.95
2019-03-12T09:33:23.612Z,98074.16
2019-03-12T09:36:10.103Z,98070.88
2019-03-12T09:38:42.493Z,98059.97
2019-03-12T09:41:17.863Z,98063.52
2019-03-12T09:43:55.643Z,98061.28
2019-03-12T09:46:42.509Z,98066.27
2019-03-12T09:49:15.180Z,98065.13
2019-03-12T09:51:54.145Z,98067.86
2019-03-12T09:54:26.493Z,98052.27
2019-03-12T09:57:10.953Z,98056.00
2019-03-12T09:59:43.326Z,98055.41
2019-03-12T10:02:19.716Z,98057.52
2019-03-12T10:04:54.839Z,98064.00
2019-03-12T10:07:27.064Z,98057.74
2019-03-12T10:10:03.486Z,98060.23
2019-03-12T10:12:41.149Z,98056.72
2019-03-12T10:15:18.028Z,98053.78
2019-03-12T10:18:02.686Z,98058.61
2019-03-12T10:20:35.414Z,98057.22
2019-03-12T10:23:11.967Z,98055.53
2019-03-12T10:25:53.074Z,98057.92
2019-03-12T10:28:40.793Z,98063.08
2019-03-12T10:31:13.358Z,98071.80
2019-03-12T10:33:48.488Z,98066.24
2019-03-12T10:36:35.256Z,98064.67
2019-03-12T10:39:47.736Z,98081.20
2019-03-12T10:42:23.053Z,98079.76
2019-03-12T10:45:10.260Z,98062.98
2019-03-12T10:47:45.326Z,98062.22
2019-03-12T10:50:17.731Z,98080.63
2019-03-12T10:52:49.413Z,98071.27
2019-03-12T10:55:21.637Z,98082.00
2019-03-12T10:57:53.463Z,98072.20
2019-03-12T11:00:25.009Z,98057.32
2019-03-12T11:02:55.244Z,98055.67
2019-03-12T11:05:27.848Z,98065.30
2019-03-12T11:07:58.721Z,98055.65
2019-03-12T11:10:30.536Z,98061.36
2019-03-12T11:13:03.336Z,98069.27
2019-03-12T11:15:33.635Z,98062.77
2019-03-12T11:18:05.071Z,98064.45
2019-03-12T11:20:37.682Z,98057.40
2019-03-12T11:23:10.076Z,98053.42
2019-03-12T11:25:44.093Z,98060.48
2019-03-12T11:28:34.124Z,98052.05
2019-03-12T11:31:12.371Z,98052.33
2019-03-12T11:33:43.570Z,98043.61
2019-03-12T11:36:14.145Z,98043.63
2019-03-12T11:38:44.641Z,98030.27
2019-03-12T11:41:15.513Z,98030.02
2019-03-12T11:43:46.462Z,98032.67
2019-03-12T11:46:17.631Z,98030.58
2019-03-12T11:48:49.341Z,98028.34
2019-03-12T11:51:21.407Z,98026.76
2019-03-12T11:53:57.265Z,98013.69
2019-03-12T11:56:30.207Z,98016.94
2019-03-12T11:59:02.440Z,98023.81
2019-03-12T12:01:33.727Z,98019.97
2019-03-12T12:04:06.176Z,97997.64
2019-03-12T12:06:42.561Z,97995.67
2019-03-12T12:09:12.012Z,97996.80
2019-03-12T12:11:43.993Z,97970.41
2019-03-12T12:14:16.001Z,97977.20
2019-03-12T12:16:47.433Z,97984.09
2019-03-12T12:19:18.588Z,97973.63
2019-03-12T12:21:51.233Z,97975.25
2019-03-12T12:24:22.636Z,97967.39
2019-03-12T12:26:53.753Z,97977.21
2019-03-12T12:29:24.657Z,97980.18
2019-03-12T12:31:56.411Z,97978.33
2019-03-12T12:34:29.494Z,97975.70
2019-03-12T12:37:02.498Z,97975.56
2019-03-12T12:39:40.853Z,97973.34
2019-03-12T12:42:24.127Z,97982.63
2019-03-12T12:45:00.855Z,97971.45
2019-03-12T12:47:42.429Z,97978.67
2019-03-12T12:50:32.772Z,97977.18
2019-03-12T12:53:17.568Z,97970.40
2019-03-12T12:55:56.090Z,97975.31
2019-03-12T12:58:43.360Z,97976.09
2019-03-12T13:01:38.398Z,97974.45
2019-03-12T13:04:04.119Z,97969.38
2019-03-12T13:06:38.771Z,97960.33
2019-03-12T13:09:28.335Z,97960.70
2019-03-12T13:12:02.919Z,97963.44
2019-03-12T13:14:41.760Z,97961.76
2019-03-12T13:17:21.477Z,97961.21
2019-03-12T13:19:58.953Z,97946.76
2019-03-12T13:22:36.999Z,97945.19
2019-03-12T13:25:15.032Z,97942.08
2019-03-12T13:27:56.621Z,97954.27
2019-03-12T13:30:43.576Z,97956.97
2019-03-12T13:33:20.311Z,97948.64
2019-03-12T13:36:04.103Z,97943.97
2019-03-12T13:38:46.913Z,97946.33
2019-03-12T13:41:28.767Z,97953.69
2019-03-12T13:44:09.801Z,97944.27
2019-03-12T13:46:54.938Z,97947.70
2019-03-12T13:49:30.965Z,97948.36
2019-03-12T13:52:13.009Z,97947.19
2019-03-12T13:55:08.302Z,97944.08
2019-03-12T13:57:44.916Z,97937.56
2019-03-12T14:00:25.657Z,97935.22
2019-03-12T14:03:10.665Z,97935.50
2019-03-12T14:05:50.035Z,97943.19
2019-03-12T14:08:32.936Z,97940.28
2019-03-12T14:11:06.803Z,97930.06
2019-03-12T14:13:44.516Z,97937.86
2019-03-12T14:16:16.278Z,97933.70
2019-03-12T14:18:46.767Z,97938.88
2019-03-12T14:21:21.906Z,97947.48
2019-03-12T14:24:09.290Z,97948.95
2019-03-12T14:26:42.274Z,97938.14
2019-03-12T14:29:13.449Z,97942.71
2019-03-12T14:31:45.454Z,97942.37
2019-03-12T14:34:17.077Z,97946.75
2019-03-12T14:36:48.938Z,97947.62
2019-03-12T14:39:20.573Z,97943.55
2019-03-12T14:41:52.316Z,97947.35
2019-03-12T14:44:23.394Z,97936.05
2019-03-12T14:46:57.446Z,97935.25
2019-03-12T14:49:30.496Z,97936.28
2019-03-12T14:52:05.827Z,97936.77
2019-03-12T14:54:39.161Z,97938.88
2019-03-12T14:57:09.473Z,97926.81
2019-03-12T14:59:40.034Z,97924.68
2019-03-12T15:02:11.051Z,97928.03
2019-03-12T15:04:42.238Z,97930.28
2019-03-12T15:07:14.772Z,97927.16
2019-03-12T15:09:45.987Z,97930.59
2019-03-12T15:12:18.322Z,97922.98
2019-03-12T15:14:53.129Z,97917.34
2019-03-12T15:17:25.277Z,97918.18
2019-03-12T15:19:58.521Z,97920.02
2019-03-12T15:22:31.423Z,97924.61
2019-03-12T15:25:05.597Z,97922.05
2019-03-12T15:27:43.570Z,97913.63
2019-03-12T15:30:23.158Z,97911.03
2019-03-12T15:32:57.240Z,97912.45
2019-03-12T15:35:32.297Z,97916.42
2019-03-12T15:38:07.686Z,97918.66
2019-03-12T15:40:42.190Z,97917.31
2019-03-12T15:43:16.157Z,97914.23
2019-03-12T15:45:49.494Z,97917.23
2019-03-12T15:48:24.859Z,97912.36
2019-03-12T15:50:59.340Z,97908.80
2019-03-12T15:53:35.897Z,97915.02
2019-03-12T15:56:08.890Z,97911.88
2019-03-12T15:58:42.825Z,97914.72
2019-03-12T16:01:18.964Z,97907.91
2019-03-12T16:03:50.888Z,97909.99
2019-03-12T16:06:26.390Z,97896.85
2019-03-12T16:08:59.732Z,97899.19
2019-03-12T16:11:34.606Z,97895.03
2019-03-12T16:14:07.314Z,97896.79
2019-03-12T16:16:41.612Z,97891.59
2019-03-12T16:19:13.902Z,97889.77
2019-03-12T16:21:46.226Z,97888.13
2019-03-12T16:24:20.169Z,97887.34
2019-03-12T16:26:54.796Z,97892.25
2019-03-12T16:29:28.776Z,97897.39
2019-03-12T16:32:00.687Z,97897.09
2019-03-12T16:34:36.380Z,97895.05
2019-03-12T16:37:08.990Z,97899.09
2019-03-12T16:39:40.535Z,97898.69
2019-03-12T16:42:10.741Z,97894.25
2019-03-12T16:44:42.441Z,97905.98
2019-03-12T16:47:13.085Z,97905.79
2019-03-12T16:49:45.107Z,97905.23
2019-03-12T16:52:16.727Z,97908.16
2019-03-12T16:54:51.454Z,97912.05
2019-03-12T16:57:23.171Z,97915.59
2019-03-12T16:59:54.387Z,97905.06
2019-03-12T17:02:26.364Z,97912.19
2019-03-12T17:04:59.343Z,97914.63
2019-03-12T17:07:32.398Z,97915.97
2019-03-12T17:10:05.342Z,97913.83
2019-03-12T17:12:39.629Z,97915.69
2019-03-12T17:15:19.704Z,97915.09
2019-03-12T17:17:59.580Z,97919.73
2019-03-12T17:20:44.547Z,97923.17
2019-03-12T17:23:21.347Z,97923.50
2019-03-12T17:25:57.105Z,97919.50
2019-03-12T17:28:33.123Z,97922.17
2019-03-12T17:31:11.053Z,97934.10
2019-03-12T17:33:44.637Z,97931.04
2019-03-12T17:36:18.450Z,97931.36
2019-03-12T17:38:52.018Z,97930.36
2019-03-12T17:41:24.097Z,97930.94
2019-03-12T17:44:01.041Z,97925.28
2019-03-12T17:46:36.416Z,97923.34
2019-03-12T17:49:08.805Z,97916.05
2019-03-12T17:51:42.302Z,97922.76
2019-03-12T17:54:31.926Z,97917.08
2019-03-12T17:57:04.405Z,97919.83
2019-03-12T17:59:37.289Z,97918.88
2019-03-12T18:02:10.329Z,97920.35
2019-03-12T18:04:41.827Z,97917.89
2019-03-12T18:07:14.860Z,97915.43
2019-03-12T18:09:47.271Z,97917.41
2019-03-12T18:12:21.867Z,97916.00
2019-03-12T18:14:56.658Z,97928.55
2019-03-12T18:17:30.442Z,97923.85
2019-03-12T18:20:04.761Z,97923.80
2019-03-12T18:22:39.214Z,97926.22
2019-03-12T18:25:25.138Z,97931.31
2019-03-12T18:28:01.894Z,97931.14
2019-03-12T18:30:40.894Z,97928.86
2019-03-12T18:33:29.107Z,97935.95
2019-03-12T18:36:08.227Z,97936.31
2019-03-12T18:38:55.005Z,97936.67
2019-03-12T18:41:43.658Z,97929.72
2019-03-12T18:44:26.449Z,97926.29
2019-03-12T18:47:06.215Z,97929.73
2019-03-12T18:49:48.441Z,97928.20
2019-03-12T18:52:28.067Z,97923.54
2019-03-12T18:55:22.228Z,97908.70
2019-03-12T18:58:06.047Z,97910.79
2019-03-12T19:00:51.646Z,97906.59
2019-03-12T19:03:33.913Z,97906.59
2019-03-12T19:06:18.818Z,97913.69
2019-03-12T19:09:02.332Z,97913.69
2019-03-12T19:11:48.788Z,97919.95
2019-03-12T19:14:26.899Z,97919.95
2019-03-12T19:17:05.450Z,97919.25
2019-03-12T19:19:43.393Z,97920.86
2019-03-12T19:22:29.519Z,97925.41
2019-03-12T19:25:17.725Z,97926.30
2019-03-12T19:28:13.643Z,97922.16
2019-03-12T19:30:58.191Z,97913.67
2019-03-12T19:33:40.609Z,97918.48
2019-03-12T19:36:18.027Z,97930.38
2019-03-12T19:39:00.194Z,97933.19
2019-03-12T19:41:49.571Z,97926.69
2019-03-12T19:44:29.149Z,97922.19
2019-03-12T19:47:15.600Z,97930.66
2019-03-12T19:49:53.213Z,97932.46
2019-03-12T19:52:39.815Z,97929.17
2019-03-12T19:55:23.537Z,97919.05
2019-03-12T19:58:06.750Z,97913.84
2019-03-12T20:00:48.243Z,97914.33
2019-03-12T20:03:28.185Z,97911.71
2019-03-12T20:06:19.074Z,97913.28
2019-03-12T20:09:09.922Z,97898.24
2019-03-12T20:11:59.474Z,97905.43
2019-03-12T20:14:58.440Z,97905.43
2019-03-12T20:18:14.887Z,97905.67
2019-03-12T20:20:59.982Z,97907.02
2019-03-12T20:23:59.411Z,97912.09
2019-03-12T20:26:48.162Z,97918.95
2019-03-12T20:30:09.341Z,97920.71
2019-03-12T20:33:21.307Z,97916.08
2019-03-12T20:36:31.293Z,97918.30
2019-03-12T20:39:39.278Z,97922.51
2019-03-12T20:42:37.748Z,97924.26
2019-03-12T20:45:19.860Z,97925.27
2019-03-12T20:48:11.709Z,97930.80
2019-03-12T20:51:19.067Z,97927.99
2019-03-12T20:54:00.333Z,97923.11
2019-03-12T20:57:19.601Z,97914.81
2019-03-12T21:00:47.306Z,97909.66
2019-03-12T21:03:51.659Z,97903.98
2019-03-12T21:07:14.356Z,97900.81
2019-03-12T21:10:21.721Z,97903.77
2019-03-12T21:13:39.323Z,97909.02
2019-03-12T21:16:37.905Z,97905.39
2019-03-12T21:19:54.232Z,97907.47
2019-03-12T21:23:03.347Z,97907.47
2019-03-12T21:26:24.975Z,97906.34
2019-03-12T21:29:30.529Z,97902.08
2019-03-12T21:32:22.667Z,97902.08
2019-03-12T21:35:12.931Z,97895.02
2019-03-12T21:38:08.957Z,97891.20
2019-03-12T21:40:59.340Z,97892.59
2019-03-12T21:43:52.879Z,97892.59
2019-03-12T21:46:40.377Z,97892.83
2019-03-12T21:49:38.425Z,97883.47
2019-03-12T21:52:31.242Z,97884.61
2019-03-12T21:55:12.689Z,97869.72
2019-03-12T21:57:56.337Z,97877.08
2019-03-12T22:00:42.449Z,97881.12
2019-03-12T22:03:34.264Z,97884.98
2019-03-12T22:06:35.522Z,97884.98
2019-03-12T22:09:28.648Z,97886.78
2019-03-12T22:12:29.065Z,97882.23
2019-03-12T22:15:22.570Z,97866.50
2019-03-12T22:18:14.969Z,97866.50
2019-03-12T22:21:10.611Z,97866.55
2019-03-12T22:24:01.538Z,97866.97
2019-03-12T22:27:09.460Z,97863.93
2019-03-12T22:30:05.452Z,97862.48
2019-03-12T22:32:59.957Z,97864.23
2019-03-12T22:35:48.050Z,97862.13
2019-03-12T22:38:33.456Z,97855.89
2019-03-12T22:41:10.498Z,97855.88
2019-03-12T22:43:58.925Z,97852.34
2019-03-12T22:46:33.543Z,97856.02
2019-03-12T22:49:12.342Z,97861.03
2019-03-12T22:51:58.419Z,97849.38
2019-03-12T22:54:32.836Z,97847.51
2019-03-12T22:57:25.802Z,97846.13
2019-03-12T23:00:34.960Z,97855.72
2019-03-12T23:03:30.560Z,97848.42
2019-03-12T23:06:45.221Z,97853.13
2019-03-12T23:10:02.290Z,97851.92
2019-03-12T23:12:57.162Z,97841.27
2019-03-12T23:15:52.399Z,97836.45
2019-03-12T23:18:45.161Z,97837.02
2019-03-12T23:21:17.873Z,97837.58
2019-03-12T23:24:08.864Z,97837.53
2019-03-12T23:26:50.401Z,97834.25
2019-03-12T23:29:33.427Z,97834.85
2019-03-12T23:32:27.252Z,97827.02
2019-03-12T23:34:59.227Z,97830.78
2019-03-12T23:37:31.578Z,97825.78
2019-03-12T23:40:17.125Z,97825.16
2019-03-12T23:42:58.495Z,97829.20
2019-03-12T23:45:29.279Z,97821.20
2019-03-12T23:48:00.358Z,97820.25
2019-03-12T23:50:37.507Z,97823.94
2019-03-12T23:53:26.267Z,97817.29
2019-03-12T23:56:00.042Z,97823.26
2019-03-12T23:58:32.952Z,97827.13
